sensor_id;sensor_type;location;lat;lon;timestamp;pressure;altitude;pressure_sealevel;temperature;humidity
51972;BME280;37991;49.662;10.060;2024-03-07T00:00:07;99971.09;;;1.26;100.00
51972;BME280;37991;49.662;10.060;2024-03-07T00:02:47;99969.50;;;1.21;100.00
51972;BME280;37991;49.662;10.060;2024-03-07T00:05:13;99973.09;;;1.13;100.00
51972;BME280;37991;49.662;10.060;2024-03-07T00:07:39;99966.31;;;1.09;100.00
51972;BME280;37991;49.662;10.060;2024-03-07T00:10:05;99965.63;;;1.01;100.00
51972;BME280;37991;49.662;10.060;2024-03-07T00:12:36;99964.97;;;0.91;100.00
51972;BME280;37991;49.662;10.060;2024-03-07T00:15:04;99977.13;;;0.85;100.00
51972;BME280;37991;49.662;10.060;2024-03-07T00:17:30;99974.63;;;0.82;100.00
51972;BME280;37991;49.662;10.060;2024-03-07T00:19:56;99970.53;;;0.72;100.00
51972;BME280;37991;49.662;10.060;2024-03-07T00:22:22;99980.00;;;0.71;100.00
51972;BME280;37991;49.662;10.060;2024-03-07T00:24:48;99980.06;;;0.66;100.00
51972;BME280;37991;49.662;10.060;2024-03-07T00:27:14;99978.44;;;0.64;100.00
51972;BME280;37991;49.662;10.060;2024-03-07T00:29:42;99977.66;;;0.57;100.00
51972;BME280;37991;49.662;10.060;2024-03-07T00:32:08;99974.31;;;0.54;100.00
51972;BME280;37991;49.662;10.060;2024-03-07T00:34:34;99967.56;;;0.48;100.00
51972;BME280;37991;49.662;10.060;2024-03-07T00:36:59;99967.56;;;0.48;100.00
51972;BME280;37991;49.662;10.060;2024-03-07T00:39:25;99975.34;;;0.45;100.00
51972;BME280;37991;49.662;10.060;2024-03-07T00:41:51;99970.31;;;0.39;100.00
51972;BME280;37991;49.662;10.060;2024-03-07T00:44:16;99967.84;;;0.33;100.00
51972;BME280;37991;49.662;10.060;2024-03-07T00:46:42;99963.59;;;0.30;100.00
51972;BME280;37991;49.662;10.060;2024-03-07T00:49:08;99957.59;;;0.30;100.00
51972;BME280;37991;49.662;10.060;2024-03-07T00:51:33;99961.00;;;0.30;100.00
51972;BME280;37991;49.662;10.060;2024-03-07T00:53:58;99967.09;;;0.26;100.00
51972;BME280;37991;49.662;10.060;2024-03-07T00:56:24;99968.06;;;0.20;100.00
51972;BME280;37991;49.662;10.060;2024-03-07T00:58:50;99956.13;;;0.15;100.00
51972;BME280;37991;49.662;10.060;2024-03-07T01:01:16;99959.59;;;0.12;100.00
51972;BME280;37991;49.662;10.060;2024-03-07T01:03:43;99960.53;;;0.08;100.00
51972;BME280;37991;49.662;10.060;2024-03-07T01:06:08;99954.59;;;0.03;100.00
51972;BME280;37991;49.662;10.060;2024-03-07T01:08:35;99949.53;;;0.00;100.00
51972;BME280;37991;49.662;10.060;2024-03-07T01:11:02;99943.56;;;-0.04;100.00
51972;BME280;37991;49.662;10.060;2024-03-07T01:13:35;99941.88;;;-0.05;100.00
51972;BME280;37991;49.662;10.060;2024-03-07T01:16:00;99932.44;;;-0.07;100.00
51972;BME280;37991;49.662;10.060;2024-03-07T01:18:26;99941.97;;;-0.11;100.00
51972;BME280;37991;49.662;10.060;2024-03-07T01:20:51;99936.81;;;-0.11;100.00
51972;BME280;37991;49.662;10.060;2024-03-07T01:23:16;99939.44;;;-0.14;100.00
51972;BME280;37991;49.662;10.060;2024-03-07T01:25:42;99931.72;;;-0.14;100.00
51972;BME280;37991;49.662;10.060;2024-03-07T01:28:08;99931.81;;;-0.18;100.00
51972;BME280;37991;49.662;10.060;2024-03-07T01:30:37;99925.81;;;-0.20;100.00
51972;BME280;37991;49.662;10.060;2024-03-07T01:33:02;99930.13;;;-0.21;100.00
51972;BME280;37991;49.662;10.060;2024-03-07T01:35:28;99920.75;;;-0.27;100.00
51972;BME280;37991;49.662;10.060;2024-03-07T01:37:53;99920.81;;;-0.30;100.00
51972;BME280;37991;49.662;10.060;2024-03-07T01:40:19;99914.88;;;-0.32;100.00
51972;BME280;37991;49.662;10.060;2024-03-07T01:42:48;99925.25;;;-0.38;100.00
51972;BME280;37991;49.662;10.060;2024-03-07T01:45:13;99911.50;;;-0.37;100.00
51972;BME280;37991;49.662;10.060;2024-03-07T01:47:39;99911.56;;;-0.40;100.00
51972;BME280;37991;49.662;10.060;2024-03-07T01:50:05;99910.72;;;-0.42;100.00
51972;BME280;37991;49.662;10.060;2024-03-07T01:52:31;99907.38;;;-0.47;100.00
51972;BME280;37991;49.662;10.060;2024-03-07T01:54:57;99907.34;;;-0.44;100.00
51972;BME280;37991;49.662;10.060;2024-03-07T01:57:23;99910.81;;;-0.48;100.00
51972;BME280;37991;49.662;10.060;2024-03-07T01:59:48;99907.44;;;-0.50;100.00
51972;BME280;37991;49.662;10.060;2024-03-07T02:02:16;99904.03;;;-0.52;100.00
51972;BME280;37991;49.662;10.060;2024-03-07T02:04:43;99903.13;;;-0.50;100.00
51972;BME280;37991;49.662;10.060;2024-03-07T02:07:08;99898.00;;;-0.51;100.00
51972;BME280;37991;49.662;10.060;2024-03-07T02:09:37;99901.44;;;-0.51;100.00
51972;BME280;37991;49.662;10.060;2024-03-07T02:12:02;99891.94;;;-0.49;100.00
51972;BME280;37991;49.662;10.060;2024-03-07T02:14:28;99896.19;;;-0.44;100.00
51972;BME280;37991;49.662;10.060;2024-03-07T02:16:55;99895.28;;;-0.42;100.00
51972;BME280;37991;49.662;10.060;2024-03-07T02:19:21;99894.38;;;-0.38;100.00
51972;BME280;37991;49.662;10.060;2024-03-07T02:21:47;99884.00;;;-0.35;100.00
51972;BME280;37991;49.662;10.060;2024-03-07T02:24:12;99894.31;;;-0.36;100.00
51972;BME280;37991;49.662;10.060;2024-03-07T02:26:39;99890.91;;;-0.37;100.00
51972;BME280;37991;49.662;10.060;2024-03-07T02:29:05;99881.44;;;-0.36;100.00
51972;BME280;37991;49.662;10.060;2024-03-07T02:31:30;99875.38;;;-0.32;100.00
51972;BME280;37991;49.662;10.060;2024-03-07T02:34:05;99874.47;;;-0.30;100.00
51972;BME280;37991;49.662;10.060;2024-03-07T02:36:33;99877.78;;;-0.21;100.00
51972;BME280;37991;49.662;10.060;2024-03-07T02:38:59;99878.56;;;-0.18;100.00
51972;BME280;37991;49.662;10.060;2024-03-07T02:41:25;99875.91;;;-0.13;100.00
51972;BME280;37991;49.662;10.060;2024-03-07T02:43:50;99872.34;;;-0.06;100.00
51972;BME280;37991;49.662;10.060;2024-03-07T02:46:16;99868.00;;;-0.04;100.00
51972;BME280;37991;49.662;10.060;2024-03-07T02:48:42;99865.41;;;-0.03;100.00
51972;BME280;37991;49.662;10.060;2024-03-07T02:51:07;99861.06;;;-0.01;100.00
51972;BME280;37991;49.662;10.060;2024-03-07T02:53:32;99867.81;;;0.07;100.00
51972;BME280;37991;49.662;10.060;2024-03-07T02:55:58;99870.34;;;0.08;100.00
51972;BME280;37991;49.662;10.060;2024-03-07T02:58:24;99860.00;;;0.11;100.00
51972;BME280;37991;49.662;10.060;2024-03-07T03:00:57;99857.25;;;0.19;100.00
51972;BME280;37991;49.662;10.060;2024-03-07T03:03:22;99863.28;;;0.19;100.00
51972;BME280;37991;49.662;10.060;2024-03-07T03:05:48;99845.25;;;0.19;100.00
51972;BME280;37991;49.662;10.060;2024-03-07T03:08:13;99840.88;;;0.21;100.00
51972;BME280;37991;49.662;10.060;2024-03-07T03:10:39;99847.75;;;0.22;100.00
51972;BME280;37991;49.662;10.060;2024-03-07T03:13:04;99844.31;;;0.23;100.00
51972;BME280;37991;49.662;10.060;2024-03-07T03:15:30;99847.72;;;0.26;100.00
51972;BME280;37991;49.662;10.060;2024-03-07T03:17:56;99845.13;;;0.26;100.00
51972;BME280;37991;49.662;10.060;2024-03-07T03:20:25;99849.44;;;0.23;100.00
51972;BME280;37991;49.662;10.060;2024-03-07T03:22:54;99849.41;;;0.25;100.00
51972;BME280;37991;49.662;10.060;2024-03-07T03:25:20;99848.56;;;0.26;100.00
51972;BME280;37991;49.662;10.060;2024-03-07T03:27:48;99844.19;;;0.28;100.00
51972;BME280;37991;49.662;10.060;2024-03-07T03:30:14;99843.34;;;0.28;100.00
51972;BME280;37991;49.662;10.060;2024-03-07T03:32:41;99844.13;;;0.31;100.00
51972;BME280;37991;49.662;10.060;2024-03-07T03:35:07;99850.13;;;0.32;100.00
51972;BME280;37991;49.662;10.060;2024-03-07T03:37:39;99844.91;;;0.35;100.00
51972;BME280;37991;49.662;10.060;2024-03-07T03:40:06;99850.06;;;0.36;100.00
51972;BME280;37991;49.662;10.060;2024-03-07T03:42:31;99844.84;;;0.39;100.00
51972;BME280;37991;49.662;10.060;2024-03-07T03:44:57;99841.34;;;0.42;100.00
51972;BME280;37991;49.662;10.060;2024-03-07T03:47:22;99846.47;;;0.43;100.00
51972;BME280;37991;49.662;10.060;2024-03-07T03:49:48;99842.91;;;0.49;100.00
51972;BME280;37991;49.662;10.060;2024-03-07T03:52:13;99838.59;;;0.51;100.00
51972;BME280;37991;49.662;10.060;2024-03-07T03:54:38;99835.91;;;0.54;100.00
51972;BME280;37991;49.662;10.060;2024-03-07T03:57:04;99835.91;;;0.56;100.00
51972;BME280;37991;49.662;10.060;2024-03-07T03:59:30;99841.84;;;0.59;100.00
51972;BME280;37991;49.662;10.060;2024-03-07T04:01:56;99841.84;;;0.59;100.00
51972;BME280;37991;49.662;10.060;2024-03-07T04:04:21;99841.78;;;0.62;100.00
51972;BME280;37991;49.662;10.060;2024-03-07T04:06:48;99837.44;;;0.64;100.00
51972;BME280;37991;49.662;10.060;2024-03-07T04:09:13;99830.47;;;0.68;100.00
51972;BME280;37991;49.662;10.060;2024-03-07T04:11:40;99835.53;;;0.73;100.00
51972;BME280;37991;49.662;10.060;2024-03-07T04:14:05;99832.94;;;0.74;100.00
51972;BME280;37991;49.662;10.060;2024-03-07T04:16:31;99838.03;;;0.76;100.00
51972;BME280;37991;49.662;10.060;2024-03-07T04:18:56;99842.28;;;0.78;100.00
51972;BME280;37991;49.662;10.060;2024-03-07T04:21:21;99843.88;;;0.84;100.00
51972;BME280;37991;49.662;10.060;2024-03-07T04:23:47;99844.75;;;0.83;100.00
51972;BME280;37991;49.662;10.060;2024-03-07T04:26:12;99844.69;;;0.86;100.00
51972;BME280;37991;49.662;10.060;2024-03-07T04:28:38;99842.88;;;0.91;100.00
51972;BME280;37991;49.662;10.060;2024-03-07T04:31:04;99841.91;;;0.95;100.00
51972;BME280;37991;49.662;10.060;2024-03-07T04:33:29;99845.31;;;0.97;100.00
51972;BME280;37991;49.662;10.060;2024-03-07T04:35:54;99834.94;;;0.99;100.00
51972;BME280;37991;49.662;10.060;2024-03-07T04:38:20;99846.91;;;1.03;100.00
51972;BME280;37991;49.662;10.060;2024-03-07T04:40:45;99841.69;;;1.04;100.00
51972;BME280;37991;49.662;10.060;2024-03-07T04:43:11;99833.88;;;1.09;100.00
51972;BME280;37991;49.662;10.060;2024-03-07T04:45:37;99839.88;;;1.09;100.00
51972;BME280;37991;49.662;10.060;2024-03-07T04:48:03;99839.81;;;1.11;100.00
51972;BME280;37991;49.662;10.060;2024-03-07T04:50:28;99838.06;;;1.13;100.00
51972;BME280;37991;49.662;10.060;2024-03-07T04:52:54;99845.72;;;1.16;100.00
51972;BME280;37991;49.662;10.060;2024-03-07T04:55:19;99836.25;;;1.16;100.00
51972;BME280;37991;49.662;10.060;2024-03-07T04:57:44;99846.44;;;1.21;100.00
51972;BME280;37991;49.662;10.060;2024-03-07T05:00:11;99845.53;;;1.24;100.00
51972;BME280;37991;49.662;10.060;2024-03-07T05:02:40;99835.97;;;1.27;100.00
51972;BME280;37991;49.662;10.060;2024-03-07T05:05:06;99848.03;;;1.28;100.00
51972;BME280;37991;49.662;10.060;2024-03-07T05:07:31;99848.88;;;1.29;100.00
51972;BME280;37991;49.662;10.060;2024-03-07T05:09:57;99852.28;;;1.29;100.00
51972;BME280;37991;49.662;10.060;2024-03-07T05:12:22;99848.88;;;1.29;100.00
51972;BME280;37991;49.662;10.060;2024-03-07T05:14:48;99839.38;;;1.31;100.00
51972;BME280;37991;49.662;10.060;2024-03-07T05:17:13;99850.41;;;1.36;100.00
51972;BME280;37991;49.662;10.060;2024-03-07T05:19:38;99850.47;;;1.33;100.00
51972;BME280;37991;49.662;10.060;2024-03-07T05:22:04;99854.59;;;1.40;100.00
51972;BME280;37991;49.662;10.060;2024-03-07T05:24:31;99853.69;;;1.43;100.00
51972;BME280;37991;49.662;10.060;2024-03-07T05:26:58;99853.66;;;1.44;100.00
51972;BME280;37991;49.662;10.060;2024-03-07T05:29:23;99858.84;;;1.43;100.00
51972;BME280;37991;49.662;10.060;2024-03-07T05:31:49;99849.38;;;1.43;100.00
51972;BME280;37991;49.662;10.060;2024-03-07T05:34:15;99845.06;;;1.44;100.00
51972;BME280;37991;49.662;10.060;2024-03-07T05:36:44;99848.50;;;1.44;100.00
51972;BME280;37991;49.662;10.060;2024-03-07T05:39:14;99851.88;;;1.46;100.00
51972;BME280;37991;49.662;10.060;2024-03-07T05:41:44;99843.22;;;1.49;100.00
51972;BME280;37991;49.662;10.060;2024-03-07T05:44:13;99843.19;;;1.50;100.00
51972;BME280;37991;49.662;10.060;2024-03-07T05:46:39;99850.59;;;1.62;100.00
51972;BME280;37991;49.662;10.060;2024-03-07T05:49:14;99846.34;;;1.61;100.00
51972;BME280;37991;49.662;10.060;2024-03-07T05:51:40;99842.81;;;1.64;100.00
51972;BME280;37991;49.662;10.060;2024-03-07T05:54:07;99845.41;;;1.64;100.00
51972;BME280;37991;49.662;10.060;2024-03-07T05:56:33;99844.44;;;1.68;100.00
51972;BME280;37991;49.662;10.060;2024-03-07T05:59:02;99847.84;;;1.70;100.00
51972;BME280;37991;49.662;10.060;2024-03-07T06:01:48;99843.44;;;1.74;100.00
51972;BME280;37991;49.662;10.060;2024-03-07T06:04:13;99841.63;;;1.77;100.00
51972;BME280;37991;49.662;10.060;2024-03-07T06:06:38;99851.06;;;1.78;100.00
51972;BME280;37991;49.662;10.060;2024-03-07T06:09:08;99846.84;;;1.76;100.00
51972;BME280;37991;49.662;10.060;2024-03-07T06:11:34;99844.28;;;1.74;100.00
51972;BME280;37991;49.662;10.060;2024-03-07T06:14:01;99848.56;;;1.75;100.00
51972;BME280;37991;49.662;10.060;2024-03-07T06:16:33;99853.84;;;1.71;100.00
51972;BME280;37991;49.662;10.060;2024-03-07T06:19:00;99857.41;;;1.67;100.00
51972;BME280;37991;49.662;10.060;2024-03-07T06:21:27;99844.50;;;1.67;100.00
51972;BME280;37991;49.662;10.060;2024-03-07T06:23:53;99842.84;;;1.62;100.00
51972;BME280;37991;49.662;10.060;2024-03-07T06:26:26;99846.25;;;1.65;100.00
51972;BME280;37991;49.662;10.060;2024-03-07T06:29:03;99849.72;;;1.63;100.00
51972;BME280;37991;49.662;10.060;2024-03-07T06:31:30;99842.91;;;1.61;100.00
51972;BME280;37991;49.662;10.060;2024-03-07T06:33:56;99846.38;;;1.60;100.00
51972;BME280;37991;49.662;10.060;2024-03-07T06:36:22;99851.56;;;1.60;100.00
51972;BME280;37991;49.662;10.060;2024-03-07T06:38:47;99853.38;;;1.56;100.00
51972;BME280;37991;49.662;10.060;2024-03-07T06:41:13;99845.63;;;1.55;100.00
51972;BME280;37991;49.662;10.060;2024-03-07T06:43:39;99851.72;;;1.52;100.00
51972;BME280;37991;49.662;10.060;2024-03-07T06:46:04;99851.78;;;1.51;100.00
51972;BME280;37991;49.662;10.060;2024-03-07T06:48:29;99846.72;;;1.46;100.00
51972;BME280;37991;49.662;10.060;2024-03-07T06:50:55;99848.50;;;1.44;100.00
51972;BME280;37991;49.662;10.060;2024-03-07T06:53:20;99845.91;;;1.44;100.00
51972;BME280;37991;49.662;10.060;2024-03-07T06:55:51;99848.44;;;1.46;100.00
51972;BME280;37991;49.662;10.060;2024-03-07T06:58:21;99850.19;;;1.45;100.00
51972;BME280;37991;49.662;10.060;2024-03-07T07:00:46;99854.34;;;1.51;100.00
51972;BME280;37991;49.662;10.060;2024-03-07T07:03:12;99847.25;;;1.59;100.00
51972;BME280;37991;49.662;10.060;2024-03-07T07:05:40;99852.19;;;1.68;100.00
51972;BME280;37991;49.662;10.060;2024-03-07T07:08:09;99853.84;;;1.71;100.00
51972;BME280;37991;49.662;10.060;2024-03-07T07:10:35;99851.94;;;1.77;100.00
51972;BME280;37991;49.662;10.060;2024-03-07T07:13:02;99856.03;;;1.86;100.00
51972;BME280;37991;49.662;10.060;2024-03-07T07:15:29;99863.56;;;1.95;100.00
51972;BME280;37991;49.662;10.060;2024-03-07T07:17:54;99859.00;;;2.03;100.00
51972;BME280;37991;49.662;10.060;2024-03-07T07:20:20;99861.41;;;2.11;98.42
51972;BME280;37991;49.662;10.060;2024-03-07T07:22:46;99862.88;;;2.20;97.12
51972;BME280;37991;49.662;10.060;2024-03-07T07:25:16;99856.50;;;2.33;96.88
51972;BME280;37991;49.662;10.060;2024-03-07T07:27:44;99851.84;;;2.44;96.57
51972;BME280;37991;49.662;10.060;2024-03-07T07:30:14;99847.22;;;2.55;96.08
51972;BME280;37991;49.662;10.060;2024-03-07T07:32:40;99837.28;;;2.71;94.69
51972;BME280;37991;49.662;10.060;2024-03-07T07:35:07;99843.16;;;2.76;93.16
51972;BME280;37991;49.662;10.060;2024-03-07T07:37:39;99837.03;;;2.79;90.80
51972;BME280;37991;49.662;10.060;2024-03-07T07:40:12;99835.84;;;2.89;90.36
51972;BME280;37991;49.662;10.060;2024-03-07T07:42:44;99838.34;;;2.92;87.71
51972;BME280;37991;49.662;10.060;2024-03-07T07:45:09;99838.88;;;3.03;85.96
51972;BME280;37991;49.662;10.060;2024-03-07T07:47:48;99841.84;;;3.19;84.80
51972;BME280;37991;49.662;10.060;2024-03-07T07:50:16;99840.34;;;3.39;85.02
51972;BME280;37991;49.662;10.060;2024-03-07T07:52:52;99847.56;;;3.56;84.51
51972;BME280;37991;49.662;10.060;2024-03-07T07:55:23;99833.91;;;3.76;81.82
51972;BME280;37991;49.662;10.060;2024-03-07T07:57:50;99837.44;;;3.98;81.28
51972;BME280;37991;49.662;10.060;2024-03-07T08:00:20;99832.31;;;4.22;80.56
51972;BME280;37991;49.662;10.060;2024-03-07T08:02:50;99832.19;;;4.48;80.28
51972;BME280;37991;49.662;10.060;2024-03-07T08:05:16;99830.09;;;4.58;78.75
51972;BME280;37991;49.662;10.060;2024-03-07T08:07:45;99835.56;;;4.74;80.11
51972;BME280;37991;49.662;10.060;2024-03-07T08:10:10;99833.38;;;4.85;78.88
51972;BME280;37991;49.662;10.060;2024-03-07T08:12:36;99832.19;;;4.94;76.78
51972;BME280;37991;49.662;10.060;2024-03-07T08:15:05;99837.63;;;4.87;75.71
51972;BME280;37991;49.662;10.060;2024-03-07T08:17:31;99838.84;;;4.79;75.27
51972;BME280;37991;49.662;10.060;2024-03-07T08:19:56;99840.28;;;4.86;78.66
51972;BME280;37991;49.662;10.060;2024-03-07T08:22:22;99845.16;;;4.94;77.81
51972;BME280;37991;49.662;10.060;2024-03-07T08:24:47;99835.69;;;4.93;77.45
51972;BME280;37991;49.662;10.060;2024-03-07T08:27:12;99835.63;;;4.94;77.28
51972;BME280;37991;49.662;10.060;2024-03-07T08:29:38;99835.94;;;4.86;76.24
51972;BME280;37991;49.662;10.060;2024-03-07T08:32:05;99829.28;;;4.79;75.08
51972;BME280;37991;49.662;10.060;2024-03-07T08:34:30;99825.44;;;4.89;76.93
51972;BME280;37991;49.662;10.060;2024-03-07T08:36:56;99831.94;;;5.00;78.09
51972;BME280;37991;49.662;10.060;2024-03-07T08:39:21;99829.78;;;5.11;78.27
51972;BME280;37991;49.662;10.060;2024-03-07T08:41:47;99823.25;;;5.01;75.06
51972;BME280;37991;49.662;10.060;2024-03-07T08:44:13;99824.75;;;5.06;76.75
51972;BME280;37991;49.662;10.060;2024-03-07T08:46:39;99816.69;;;5.34;76.50
51972;BME280;37991;49.662;10.060;2024-03-07T08:49:04;99815.34;;;5.67;75.06
51972;BME280;37991;49.662;10.060;2024-03-07T08:51:30;99813.66;;;5.86;73.08
51972;BME280;37991;49.662;10.060;2024-03-07T08:53:56;99812.69;;;5.89;71.92
51972;BME280;37991;49.662;10.060;2024-03-07T08:56:21;99805.63;;;6.13;73.29
51972;BME280;37991;49.662;10.060;2024-03-07T08:58:48;99803.50;;;6.21;71.72
51972;BME280;37991;49.662;10.060;2024-03-07T09:01:13;99799.94;;;6.03;70.31
51972;BME280;37991;49.662;10.060;2024-03-07T09:03:38;99799.75;;;6.08;70.76
51972;BME280;37991;49.662;10.060;2024-03-07T09:06:04;99805.13;;;6.23;71.51
51972;BME280;37991;49.662;10.060;2024-03-07T09:08:30;99802.25;;;6.29;71.06
51972;BME280;37991;49.662;10.060;2024-03-07T09:10:56;99803.78;;;6.34;70.95
51972;BME280;37991;49.662;10.060;2024-03-07T09:13:23;99794.38;;;6.50;71.10
51972;BME280;37991;49.662;10.060;2024-03-07T09:15:48;99797.47;;;6.58;71.36
51972;BME280;37991;49.662;10.060;2024-03-07T09:18:14;99796.34;;;6.64;70.18
51972;BME280;37991;49.662;10.060;2024-03-07T09:20:40;99794.78;;;6.79;69.83
51972;BME280;37991;49.662;10.060;2024-03-07T09:23:05;99801.97;;;6.73;69.10
51972;BME280;37991;49.662;10.060;2024-03-07T09:25:31;99803.22;;;6.84;70.93
51972;BME280;37991;49.662;10.060;2024-03-07T09:27:58;99801.06;;;6.74;69.03
51972;BME280;37991;49.662;10.060;2024-03-07T09:30:25;99804.16;;;6.26;68.10
51972;BME280;37991;49.662;10.060;2024-03-07T09:32:53;99799.13;;;5.82;69.81
51972;BME280;37991;49.662;10.060;2024-03-07T09:35:20;99799.19;;;6.01;71.04
51972;BME280;37991;49.662;10.060;2024-03-07T09:37:46;99800.34;;;6.14;71.45
51972;BME280;37991;49.662;10.060;2024-03-07T09:40:11;99794.88;;;6.39;70.97
51972;BME280;37991;49.662;10.060;2024-03-07T09:42:42;99791.06;;;6.65;70.46
51972;BME280;37991;49.662;10.060;2024-03-07T09:45:16;99788.66;;;6.80;71.50
51972;BME280;37991;49.662;10.060;2024-03-07T09:47:45;99793.63;;;7.03;70.60
51972;BME280;37991;49.662;10.060;2024-03-07T09:50:12;99789.44;;;7.35;70.71
51972;BME280;37991;49.662;10.060;2024-03-07T09:52:39;99794.47;;;7.56;68.59
51972;BME280;37991;49.662;10.060;2024-03-07T09:55:05;99787.97;;;7.30;68.30
51972;BME280;37991;49.662;10.060;2024-03-07T09:57:34;99795.41;;;7.20;69.10
51972;BME280;37991;49.662;10.060;2024-03-07T10:00:01;99797.44;;;7.13;71.43
51972;BME280;37991;49.662;10.060;2024-03-07T10:02:39;99792.38;;;7.10;70.25
51972;BME280;37991;49.662;10.060;2024-03-07T10:05:07;99799.53;;;7.07;70.87
51972;BME280;37991;49.662;10.060;2024-03-07T10:07:35;99798.97;;;7.00;70.50
51972;BME280;37991;49.662;10.060;2024-03-07T10:10:01;99795.44;;;7.01;71.23
51972;BME280;37991;49.662;10.060;2024-03-07T10:12:35;99795.94;;;7.09;70.54
51972;BME280;37991;49.662;10.060;2024-03-07T10:15:03;99795.88;;;6.92;70.13
51972;BME280;37991;49.662;10.060;2024-03-07T10:17:31;99799.25;;;6.94;71.09
51972;BME280;37991;49.662;10.060;2024-03-07T10:19:58;99786.22;;;6.77;69.89
51972;BME280;37991;49.662;10.060;2024-03-07T10:22:25;99787.75;;;6.81;71.35
51972;BME280;37991;49.662;10.060;2024-03-07T10:24:56;99782.31;;;6.85;71.07
51972;BME280;37991;49.662;10.060;2024-03-07T10:27:26;99784.41;;;6.96;71.53
51972;BME280;37991;49.662;10.060;2024-03-07T10:29:52;99784.44;;;7.13;72.92
51972;BME280;37991;49.662;10.060;2024-03-07T10:32:24;99780.44;;;7.23;72.77
51972;BME280;37991;49.662;10.060;2024-03-07T10:34:51;99782.97;;;7.42;73.55
51972;BME280;37991;49.662;10.060;2024-03-07T10:37:16;99774.81;;;7.50;73.22
51972;BME280;37991;49.662;10.060;2024-03-07T10:39:48;99766.09;;;7.50;72.07
51972;BME280;37991;49.662;10.060;2024-03-07T10:42:18;99769.59;;;7.50;71.73
51972;BME280;37991;49.662;10.060;2024-03-07T10:44:45;99767.81;;;7.51;71.35
51972;BME280;37991;49.662;10.060;2024-03-07T10:47:18;99762.50;;;7.52;71.54
51972;BME280;37991;49.662;10.060;2024-03-07T10:49:57;99758.84;;;7.56;71.28
51972;BME280;37991;49.662;10.060;2024-03-07T10:52:39;99758.75;;;7.58;70.81
51972;BME280;37991;49.662;10.060;2024-03-07T10:55:25;99748.00;;;7.64;72.21
51972;BME280;37991;49.662;10.060;2024-03-07T10:58:02;99748.69;;;7.67;71.06
51972;BME280;37991;49.662;10.060;2024-03-07T11:00:32;99745.09;;;7.70;71.92
51972;BME280;37991;49.662;10.060;2024-03-07T11:03:02;99749.84;;;7.79;72.17
51972;BME280;37991;49.662;10.060;2024-03-07T11:05:33;99748.13;;;7.78;71.08
51972;BME280;37991;49.662;10.060;2024-03-07T11:08:00;99740.56;;;7.74;70.57
51972;BME280;37991;49.662;10.060;2024-03-07T11:10:30;99739.88;;;7.70;69.55
51972;BME280;37991;49.662;10.060;2024-03-07T11:12:57;99740.25;;;7.62;68.15
51972;BME280;37991;49.662;10.060;2024-03-07T11:15:24;99737.28;;;7.53;67.56
51972;BME280;37991;49.662;10.060;2024-03-07T11:17:53;99735.44;;;7.55;68.49
51972;BME280;37991;49.662;10.060;2024-03-07T11:20:21;99733.16;;;7.66;69.40
51972;BME280;37991;49.662;10.060;2024-03-07T11:22:47;99727.97;;;7.82;69.19
51972;BME280;37991;49.662;10.060;2024-03-07T11:25:12;99727.22;;;7.96;70.14
51972;BME280;37991;49.662;10.060;2024-03-07T11:27:38;99725.19;;;8.01;68.61
51972;BME280;37991;49.662;10.060;2024-03-07T11:30:07;99713.25;;;7.97;67.77
51972;BME280;37991;49.662;10.060;2024-03-07T11:32:39;99709.47;;;8.02;67.80
51972;BME280;37991;49.662;10.060;2024-03-07T11:35:11;99702.50;;;8.19;69.11
51972;BME280;37991;49.662;10.060;2024-03-07T11:37:43;99696.88;;;8.42;71.18
51972;BME280;37991;49.662;10.060;2024-03-07T11:42:48;99683.41;;;8.66;66.65
51972;BME280;37991;49.662;10.060;2024-03-07T11:45:15;99679.84;;;8.67;65.06
51972;BME280;37991;49.662;10.060;2024-03-07T11:47:58;99689.34;;;8.83;64.61
51972;BME280;37991;49.662;10.060;2024-03-07T11:50:35;99670.38;;;8.80;65.18
51972;BME280;37991;49.662;10.060;2024-03-07T11:53:01;99673.63;;;8.99;65.47
51972;BME280;37991;49.662;10.060;2024-03-07T11:55:27;99672.34;;;9.06;63.86
51972;BME280;37991;49.662;10.060;2024-03-07T11:58:09;99670.56;;;9.07;64.52
51972;BME280;37991;49.662;10.060;2024-03-07T12:00:38;99670.75;;;9.04;62.80
51972;BME280;37991;49.662;10.060;2024-03-07T12:03:08;99672.16;;;9.10;62.53
51972;BME280;37991;49.662;10.060;2024-03-07T12:05:34;99667.50;;;9.15;63.04
51972;BME280;37991;49.662;10.060;2024-03-07T12:07:59;99661.47;;;9.28;64.86
51972;BME280;37991;49.662;10.060;2024-03-07T12:10:26;99661.25;;;9.31;64.96
51972;BME280;37991;49.662;10.060;2024-03-07T12:12:53;99654.00;;;9.37;64.38
51972;BME280;37991;49.662;10.060;2024-03-07T12:15:21;99644.75;;;9.31;61.31
51972;BME280;37991;49.662;10.060;2024-03-07T12:17:49;99652.69;;;9.29;60.89
51972;BME280;37991;49.662;10.060;2024-03-07T12:20:16;99643.72;;;9.34;61.42
51972;BME280;37991;49.662;10.060;2024-03-07T12:22:56;99644.84;;;9.44;61.80
51972;BME280;37991;49.662;10.060;2024-03-07T12:25:22;99636.44;;;9.39;59.94
51972;BME280;37991;49.662;10.060;2024-03-07T12:28:11;99643.59;;;8.76;60.52
51972;BME280;37991;49.662;10.060;2024-03-07T12:33:11;99649.13;;;8.08;63.09
51972;BME280;37991;49.662;10.060;2024-03-07T12:35:39;99636.84;;;7.95;63.61
51972;BME280;37991;49.662;10.060;2024-03-07T12:38:08;99640.34;;;7.78;64.17
51972;BME280;37991;49.662;10.060;2024-03-07T12:40:36;99634.88;;;7.66;64.10
51972;BME280;37991;49.662;10.060;2024-03-07T12:43:12;99628.66;;;7.53;64.39
51972;BME280;37991;49.662;10.060;2024-03-07T12:45:47;99630.47;;;7.51;65.17
51972;BME280;37991;49.662;10.060;2024-03-07T12:48:13;99627.72;;;7.54;66.02
51972;BME280;37991;49.662;10.060;2024-03-07T12:50:40;99633.94;;;7.67;65.50
51972;BME280;37991;49.662;10.060;2024-03-07T12:53:06;99620.47;;;7.59;65.62
51972;BME280;37991;49.662;10.060;2024-03-07T12:55:39;99629.16;;;7.60;67.03
51972;BME280;37991;49.662;10.060;2024-03-07T12:58:08;99629.91;;;7.62;66.96